sensor_id;sensor_type;location;lat;lon;timestamp;P1;durP1;ratioP1;P2;durP2;ratioP2
23159;SDS011;11748;50.844;4.396;2023-08-08T13:05:45;2.38;;;1.10;;
23159;SDS011;11748;50.844;4.396;2023-08-08T13:08:11;3.92;;;1.05;;
23159;SDS011;11748;50.844;4.396;2023-08-08T13:10:39;2.20;;;0.90;;
23159;SDS011;11748;50.844;4.396;2023-08-08T13:13:05;3.92;;;1.00;;
23159;SDS011;11748;50.844;4.396;2023-08-08T13:15:31;3.38;;;1.10;;
23159;SDS011;11748;50.844;4.396;2023-08-08T13:17:57;4.07;;;1.15;;
23159;SDS011;11748;50.844;4.396;2023-08-08T13:20:24;1.83;;;1.10;;
23159;SDS011;11748;50.844;4.396;2023-08-08T13:22:51;3.78;;;0.90;;
23159;SDS011;11748;50.844;4.396;2023-08-08T13:25:17;7.03;;;1.33;;
23159;SDS011;11748;50.844;4.396;2023-08-08T13:27:46;3.05;;;1.30;;
23159;SDS011;11748;50.844;4.396;2023-08-08T13:30:13;2.47;;;1.00;;
23159;SDS011;11748;50.844;4.396;2023-08-08T13:32:41;2.83;;;1.27;;
23159;SDS011;11748;50.844;4.396;2023-08-08T13:35:07;3.47;;;1.08;;
23159;SDS011;11748;50.844;4.396;2023-08-08T13:37:33;3.28;;;0.98;;
23159;SDS011;11748;50.844;4.396;2023-08-08T13:39:58;3.55;;;1.27;;
23159;SDS011;11748;50.844;4.396;2023-08-08T13:42:24;4.15;;;1.05;;
23159;SDS011;11748;50.844;4.396;2023-08-08T13:44:50;3.85;;;1.20;;
23159;SDS011;11748;50.844;4.396;2023-08-08T13:47:15;1.88;;;1.08;;
23159;SDS011;11748;50.844;4.396;2023-08-08T13:49:41;2.22;;;0.90;;
23159;SDS011;11748;50.844;4.396;2023-08-08T13:52:07;3.70;;;1.10;;
23159;SDS011;11748;50.844;4.396;2023-08-08T13:54:33;1.77;;;0.90;;
23159;SDS011;11748;50.844;4.396;2023-08-08T13:56:59;3.05;;;1.10;;
23159;SDS011;11748;50.844;4.396;2023-08-08T13:59:24;2.08;;;1.00;;
23159;SDS011;11748;50.844;4.396;2023-08-08T14:01:51;1.85;;;0.90;;
23159;SDS011;11748;50.844;4.396;2023-08-08T14:04:18;3.88;;;1.10;;
23159;SDS011;11748;50.844;4.396;2023-08-08T14:06:44;2.45;;;0.98;;
23159;SDS011;11748;50.844;4.396;2023-08-08T14:09:10;2.05;;;1.15;;
23159;SDS011;11748;50.844;4.396;2023-08-08T14:11:36;5.05;;;1.02;;
23159;SDS011;11748;50.844;4.396;2023-08-08T14:14:02;3.95;;;1.20;;
23159;SDS011;11748;50.844;4.396;2023-08-08T14:16:28;5.00;;;1.05;;
23159;SDS011;11748;50.844;4.396;2023-08-08T14:18:53;3.72;;;1.15;;
23159;SDS011;11748;50.844;4.396;2023-08-08T14:21:19;2.08;;;0.80;;
23159;SDS011;11748;50.844;4.396;2023-08-08T14:23:45;3.05;;;1.05;;
23159;SDS011;11748;50.844;4.396;2023-08-08T14:26:12;4.53;;;0.90;;
23159;SDS011;11748;50.844;4.396;2023-08-08T14:28:39;2.65;;;1.00;;
23159;SDS011;11748;50.844;4.396;2023-08-08T14:31:05;2.63;;;0.88;;
23159;SDS011;11748;50.844;4.396;2023-08-08T14:33:32;2.30;;;1.52;;
23159;SDS011;11748;50.844;4.396;2023-08-08T14:35:58;2.30;;;0.90;;
23159;SDS011;11748;50.844;4.396;2023-08-08T14:38:24;2.58;;;1.25;;
23159;SDS011;11748;50.844;4.396;2023-08-08T14:40:50;3.08;;;0.95;;
23159;SDS011;11748;50.844;4.396;2023-08-08T14:43:18;1.65;;;1.13;;
23159;SDS011;11748;50.844;4.396;2023-08-08T14:45:44;1.77;;;0.90;;
23159;SDS011;11748;50.844;4.396;2023-08-08T14:48:10;2.15;;;0.80;;
23159;SDS011;11748;50.844;4.396;2023-08-08T14:50:36;3.90;;;0.93;;
23159;SDS011;11748;50.844;4.396;2023-08-08T14:53:02;1.10;;;0.60;;
23159;SDS011;11748;50.844;4.396;2023-08-08T14:55:29;2.58;;;0.80;;
23159;SDS011;11748;50.844;4.396;2023-08-08T14:57:54;2.05;;;0.93;;
23159;SDS011;11748;50.844;4.396;2023-08-08T15:00:21;6.25;;;1.15;;
23159;SDS011;11748;50.844;4.396;2023-08-08T15:02:47;3.40;;;1.10;;
23159;SDS011;11748;50.844;4.396;2023-08-08T15:05:12;4.47;;;1.00;;
23159;SDS011;11748;50.844;4.396;2023-08-08T15:07:38;1.73;;;0.63;;
23159;SDS011;11748;50.844;4.396;2023-08-08T15:10:04;3.10;;;0.95;;
23159;SDS011;11748;50.844;4.396;2023-08-08T15:12:30;3.95;;;1.48;;
23159;SDS011;11748;50.844;4.396;2023-08-08T15:14:56;3.67;;;0.95;;
23159;SDS011;11748;50.844;4.396;2023-08-08T15:17:22;1.40;;;0.80;;
23159;SDS011;11748;50.844;4.396;2023-08-08T15:19:47;1.30;;;0.70;;
23159;SDS011;11748;50.844;4.396;2023-08-08T15:22:13;2.05;;;1.20;;
23159;SDS011;11748;50.844;4.396;2023-08-08T15:24:38;1.50;;;0.82;;
23159;SDS011;11748;50.844;4.396;2023-08-08T15:27:05;2.50;;;0.90;;
23159;SDS011;11748;50.844;4.396;2023-08-08T15:29:31;2.67;;;1.20;;
23159;SDS011;11748;50.844;4.396;2023-08-08T15:31:57;1.80;;;0.88;;
23159;SDS011;11748;50.844;4.396;2023-08-08T15:34:23;2.33;;;0.90;;
23159;SDS011;11748;50.844;4.396;2023-08-08T15:36:48;2.03;;;0.70;;
23159;SDS011;11748;50.844;4.396;2023-08-08T15:39:15;2.75;;;0.63;;
23159;SDS011;11748;50.844;4.396;2023-08-08T15:41:40;1.75;;;0.70;;
23159;SDS011;11748;50.844;4.396;2023-08-08T15:44:06;2.10;;;0.80;;
23159;SDS011;11748;50.844;4.396;2023-08-08T15:46:32;1.55;;;0.90;;
23159;SDS011;11748;50.844;4.396;2023-08-08T15:48:58;1.33;;;0.70;;
23159;SDS011;11748;50.844;4.396;2023-08-08T15:51:24;3.63;;;0.85;;
23159;SDS011;11748;50.844;4.396;2023-08-08T15:53:50;2.90;;;1.00;;
23159;SDS011;11748;50.844;4.396;2023-08-08T15:56:15;2.53;;;0.77;;
23159;SDS011;11748;50.844;4.396;2023-08-08T15:58:41;2.25;;;0.82;;
23159;SDS011;11748;50.844;4.396;2023-08-08T16:01:07;1.55;;;1.10;;
23159;SDS011;11748;50.844;4.396;2023-08-08T16:03:33;3.42;;;0.80;;
23159;SDS011;11748;50.844;4.396;2023-08-08T16:05:59;3.10;;;0.80;;
23159;SDS011;11748;50.844;4.396;2023-08-08T16:08:26;4.68;;;0.77;;
23159;SDS011;11748;50.844;4.396;2023-08-08T16:10:52;2.20;;;0.90;;
23159;SDS011;11748;50.844;4.396;2023-08-08T16:13:17;3.25;;;1.00;;
23159;SDS011;11748;50.844;4.396;2023-08-08T16:15:43;3.05;;;1.65;;
23159;SDS011;11748;50.844;4.396;2023-08-08T16:18:09;2.75;;;1.00;;
23159;SDS011;11748;50.844;4.396;2023-08-08T16:20:34;2.97;;;1.17;;
23159;SDS011;11748;50.844;4.396;2023-08-08T16:23:00;2.65;;;1.25;;
23159;SDS011;11748;50.844;4.396;2023-08-08T16:25:26;3.35;;;1.10;;
23159;SDS011;11748;50.844;4.396;2023-08-08T16:27:51;1.85;;;1.10;;
23159;SDS011;11748;50.844;4.396;2023-08-08T16:30:17;3.63;;;1.20;;
23159;SDS011;11748;50.844;4.396;2023-08-08T16:32:43;3.75;;;1.35;;
23159;SDS011;11748;50.844;4.396;2023-08-08T16:35:09;3.67;;;1.73;;
23159;SDS011;11748;50.844;4.396;2023-08-08T16:37:35;4.88;;;1.60;;
23159;SDS011;11748;50.844;4.396;2023-08-08T16:40:00;5.03;;;2.10;;
23159;SDS011;11748;50.844;4.396;2023-08-08T16:42:26;5.25;;;2.00;;
23159;SDS011;11748;50.844;4.396;2023-08-08T16:44:52;2.05;;;1.83;;
23159;SDS011;11748;50.844;4.396;2023-08-08T16:47:19;4.72;;;1.90;;
23159;SDS011;11748;50.844;4.396;2023-08-08T16:49:44;3.88;;;1.63;;
23159;SDS011;11748;50.844;4.396;2023-08-08T16:52:11;4.32;;;1.83;;
23159;SDS011;11748;50.844;4.396;2023-08-08T16:54:36;4.53;;;1.95;;
23159;SDS011;11748;50.844;4.396;2023-08-08T16:57:02;3.80;;;1.90;;
23159;SDS011;11748;50.844;4.396;2023-08-08T16:59:28;3.50;;;1.67;;
23159;SDS011;11748;50.844;4.396;2023-08-08T17:01:54;3.28;;;1.83;;
23159;SDS011;11748;50.844;4.396;2023-08-08T17:04:20;4.68;;;2.05;;
23159;SDS011;11748;50.844;4.396;2023-08-08T17:06:47;6.15;;;2.40;;
23159;SDS011;11748;50.844;4.396;2023-08-08T17:09:13;5.93;;;2.67;;
23159;SDS011;11748;50.844;4.396;2023-08-08T17:11:38;3.25;;;2.20;;
23159;SDS011;11748;50.844;4.396;2023-08-08T17:14:04;4.90;;;2.20;;
23159;SDS011;11748;50.844;4.396;2023-08-08T17:16:30;5.20;;;2.20;;
23159;SDS011;11748;50.844;4.396;2023-08-08T17:18:57;3.85;;;2.20;;
23159;SDS011;11748;50.844;4.396;2023-08-08T17:21:23;3.63;;;2.30;;
23159;SDS011;11748;50.844;4.396;2023-08-08T17:23:49;3.50;;;2.10;;
23159;SDS011;11748;50.844;4.396;2023-08-08T17:26:15;4.75;;;2.22;;
23159;SDS011;11748;50.844;4.396;2023-08-08T17:28:40;4.35;;;2.50;;
23159;SDS011;11748;50.844;4.396;2023-08-08T17:31:06;4.38;;;2.15;;
23159;SDS011;11748;50.844;4.396;2023-08-08T17:33:32;3.80;;;2.58;;
23159;SDS011;11748;50.844;4.396;2023-08-08T17:35:57;4.00;;;2.08;;
23159;SDS011;11748;50.844;4.396;2023-08-08T17:38:23;3.47;;;2.17;;
23159;SDS011;11748;50.844;4.396;2023-08-08T17:40:51;3.35;;;1.80;;
23159;SDS011;11748;50.844;4.396;2023-08-08T17:43:16;7.38;;;4.80;;
23159;SDS011;11748;50.844;4.396;2023-08-08T17:45:43;5.57;;;2.72;;
23159;SDS011;11748;50.844;4.396;2023-08-08T17:48:09;5.10;;;2.70;;
23159;SDS011;11748;50.844;4.396;2023-08-08T17:50:34;3.10;;;2.08;;
23159;SDS011;11748;50.844;4.396;2023-08-08T17:53:01;4.88;;;2.22;;
23159;SDS011;11748;50.844;4.396;2023-08-08T17:55:26;4.88;;;2.20;;
23159;SDS011;11748;50.844;4.396;2023-08-08T17:57:52;5.60;;;2.38;;
23159;SDS011;11748;50.844;4.396;2023-08-08T18:00:18;5.20;;;2.38;;
23159;SDS011;11748;50.844;4.396;2023-08-08T18:02:43;3.25;;;2.35;;
23159;SDS011;11748;50.844;4.396;2023-08-08T18:05:09;6.22;;;2.95;;
23159;SDS011;11748;50.844;4.396;2023-08-08T18:07:35;3.10;;;2.38;;
23159;SDS011;11748;50.844;4.396;2023-08-08T18:10:01;5.90;;;2.60;;
23159;SDS011;11748;50.844;4.396;2023-08-08T18:12:26;4.60;;;2.30;;
23159;SDS011;11748;50.844;4.396;2023-08-08T18:14:52;5.00;;;2.70;;
23159;SDS011;11748;50.844;4.396;2023-08-08T18:17:21;3.92;;;2.47;;
23159;SDS011;11748;50.844;4.396;2023-08-08T18:19:50;3.53;;;2.50;;
23159;SDS011;11748;50.844;4.396;2023-08-08T18:22:16;4.97;;;3.03;;
23159;SDS011;11748;50.844;4.396;2023-08-08T18:24:42;4.72;;;2.67;;
23159;SDS011;11748;50.844;4.396;2023-08-08T18:27:08;4.55;;;2.47;;
23159;SDS011;11748;50.844;4.396;2023-08-08T18:29:34;4.70;;;2.35;;
23159;SDS011;11748;50.844;4.396;2023-08-08T18:32:00;4.03;;;2.50;;
23159;SDS011;11748;50.844;4.396;2023-08-08T18:34:26;4.38;;;2.65;;
23159;SDS011;11748;50.844;4.396;2023-08-08T18:36:51;4.28;;;2.72;;
23159;SDS011;11748;50.844;4.396;2023-08-08T18:39:17;5.82;;;2.70;;
23159;SDS011;11748;50.844;4.396;2023-08-08T18:41:43;9.52;;;3.20;;
23159;SDS011;11748;50.844;4.396;2023-08-08T18:44:08;8.15;;;4.80;;
23159;SDS011;11748;50.844;4.396;2023-08-08T18:46:34;5.72;;;3.28;;
23159;SDS011;11748;50.844;4.396;2023-08-08T18:49:00;6.38;;;3.33;;
23159;SDS011;11748;50.844;4.396;2023-08-08T18:51:27;5.38;;;3.10;;
23159;SDS011;11748;50.844;4.396;2023-08-08T18:53:52;4.75;;;2.90;;
23159;SDS011;11748;50.844;4.396;2023-08-08T18:56:18;4.88;;;2.72;;
23159;SDS011;11748;50.844;4.396;2023-08-08T18:58:45;6.10;;;2.95;;
23159;SDS011;11748;50.844;4.396;2023-08-08T19:01:11;6.28;;;2.97;;
23159;SDS011;11748;50.844;4.396;2023-08-08T19:03:37;4.93;;;3.28;;
23159;SDS011;11748;50.844;4.396;2023-08-08T19:06:02;5.55;;;3.30;;
23159;SDS011;11748;50.844;4.396;2023-08-08T19:08:28;6.25;;;3.42;;
23159;SDS011;11748;50.844;4.396;2023-08-08T19:10:54;4.40;;;3.20;;
23159;SDS011;11748;50.844;4.396;2023-08-08T19:13:20;5.57;;;3.22;;
23159;SDS011;11748;50.844;4.396;2023-08-08T19:15:46;5.15;;;3.42;;
23159;SDS011;11748;50.844;4.396;2023-08-08T19:18:12;8.23;;;4.05;;
23159;SDS011;11748;50.844;4.396;2023-08-08T19:20:39;6.57;;;3.60;;
23159;SDS011;11748;50.844;4.396;2023-08-08T19:23:04;3.72;;;3.30;;
23159;SDS011;11748;50.844;4.396;2023-08-08T19:25:30;7.30;;;3.65;;
23159;SDS011;11748;50.844;4.396;2023-08-08T19:27:56;6.25;;;3.88;;
23159;SDS011;11748;50.844;4.396;2023-08-08T19:30:22;5.57;;;3.85;;
23159;SDS011;11748;50.844;4.396;2023-08-08T19:32:48;6.93;;;3.38;;
23159;SDS011;11748;50.844;4.396;2023-08-08T19:35:13;7.18;;;3.88;;
23159;SDS011;11748;50.844;4.396;2023-08-08T19:37:39;6.70;;;3.58;;
23159;SDS011;11748;50.844;4.396;2023-08-08T19:40:05;5.53;;;2.95;;
23159;SDS011;11748;50.844;4.396;2023-08-08T19:42:32;7.93;;;3.33;;
23159;SDS011;11748;50.844;4.396;2023-08-08T19:44:58;6.50;;;3.40;;
23159;SDS011;11748;50.844;4.396;2023-08-08T19:47:24;5.45;;;3.33;;
23159;SDS011;11748;50.844;4.396;2023-08-08T19:49:49;4.88;;;3.05;;
23159;SDS011;11748;50.844;4.396;2023-08-08T19:52:15;4.80;;;2.85;;
23159;SDS011;11748;50.844;4.396;2023-08-08T19:54:41;6.15;;;3.65;;
23159;SDS011;11748;50.844;4.396;2023-08-08T19:57:07;4.20;;;3.05;;
23159;SDS011;11748;50.844;4.396;2023-08-08T19:59:32;5.95;;;2.95;;
23159;SDS011;11748;50.844;4.396;2023-08-08T20:01:58;6.53;;;3.80;;
23159;SDS011;11748;50.844;4.396;2023-08-08T20:04:24;4.97;;;3.03;;
23159;SDS011;11748;50.844;4.396;2023-08-08T20:06:50;7.60;;;3.45;;
23159;SDS011;11748;50.844;4.396;2023-08-08T20:09:16;7.30;;;3.45;;
23159;SDS011;11748;50.844;4.396;2023-08-08T20:11:42;5.88;;;2.70;;
23159;SDS011;11748;50.844;4.396;2023-08-08T20:14:08;7.10;;;3.55;;
23159;SDS011;11748;50.844;4.396;2023-08-08T20:16:35;5.70;;;3.22;;
23159;SDS011;11748;50.844;4.396;2023-08-08T20:19:01;6.78;;;2.97;;
23159;SDS011;11748;50.844;4.396;2023-08-08T20:21:27;6.85;;;3.47;;
23159;SDS011;11748;50.844;4.396;2023-08-08T20:23:53;7.25;;;2.90;;
23159;SDS011;11748;50.844;4.396;2023-08-08T20:26:19;3.80;;;3.03;;
23159;SDS011;11748;50.844;4.396;2023-08-08T20:28:44;8.25;;;3.55;;
23159;SDS011;11748;50.844;4.396;2023-08-08T20:31:10;8.82;;;3.25;;
23159;SDS011;11748;50.844;4.396;2023-08-08T20:33:36;7.47;;;3.33;;
23159;SDS011;11748;50.844;4.396;2023-08-08T20:36:02;6.72;;;3.08;;
23159;SDS011;11748;50.844;4.396;2023-08-08T20:38:28;7.10;;;3.00;;
23159;SDS011;11748;50.844;4.396;2023-08-08T20:40:55;4.78;;;3.38;;
23159;SDS011;11748;50.844;4.396;2023-08-08T20:43:21;6.57;;;3.80;;
23159;SDS011;11748;50.844;4.396;2023-08-08T20:45:46;7.25;;;3.72;;
23159;SDS011;11748;50.844;4.396;2023-08-08T20:48:12;4.68;;;3.33;;
23159;SDS011;11748;50.844;4.396;2023-08-08T20:50:38;8.80;;;3.70;;
23159;SDS011;11748;50.844;4.396;2023-08-08T20:53:03;6.38;;;3.95;;
23159;SDS011;11748;50.844;4.396;2023-08-08T20:55:30;5.65;;;4.05;;
23159;SDS011;11748;50.844;4.396;2023-08-08T20:57:56;7.55;;;4.13;;
23159;SDS011;11748;50.844;4.396;2023-08-08T21:00:23;11.55;;;4.68;;
23159;SDS011;11748;50.844;4.396;2023-08-08T21:02:49;6.85;;;3.83;;
23159;SDS011;11748;50.844;4.396;2023-08-08T21:05:15;7.03;;;3.90;;
23159;SDS011;11748;50.844;4.396;2023-08-08T21:07:41;6.55;;;4.13;;
23159;SDS011;11748;50.844;4.396;2023-08-08T21:10:07;7.05;;;4.07;;
23159;SDS011;11748;50.844;4.396;2023-08-08T21:12:33;8.63;;;4.07;;
23159;SDS011;11748;50.844;4.396;2023-08-08T21:14:58;11.48;;;4.30;;
23159;SDS011;11748;50.844;4.396;2023-08-08T21:17:24;6.15;;;3.42;;
23159;SDS011;11748;50.844;4.396;2023-08-08T21:19:50;6.70;;;4.38;;
23159;SDS011;11748;50.844;4.396;2023-08-08T21:22:18;8.85;;;4.35;;
23159;SDS011;11748;50.844;4.396;2023-08-08T21:24:45;8.32;;;4.15;;
23159;SDS011;11748;50.844;4.396;2023-08-08T21:27:12;8.10;;;4.18;;
23159;SDS011;11748;50.844;4.396;2023-08-08T21:29:38;8.30;;;3.97;;
23159;SDS011;11748;50.844;4.396;2023-08-08T21:32:03;9.82;;;4.07;;
23159;SDS011;11748;50.844;4.396;2023-08-08T21:34:29;6.55;;;3.70;;
23159;SDS011;11748;50.844;4.396;2023-08-08T21:36:55;8.32;;;4.13;;
23159;SDS011;11748;50.844;4.396;2023-08-08T21:39:21;7.93;;;4.03;;
23159;SDS011;11748;50.844;4.396;2023-08-08T21:41:47;5.75;;;3.20;;
23159;SDS011;11748;50.844;4.396;2023-08-08T21:44:13;9.82;;;4.00;;
23159;SDS011;11748;50.844;4.396;2023-08-08T21:50:00;8.40;;;3.20;;
23159;SDS011;11748;50.844;4.396;2023-08-08T21:52:26;5.15;;;2.97;;
23159;SDS011;11748;50.844;4.396;2023-08-08T21:54:52;5.43;;;3.03;;
23159;SDS011;11748;50.844;4.396;2023-08-08T21:57:17;10.25;;;3.40;;
23159;SDS011;11748;50.844;4.396;2023-08-08T21:59:43;5.82;;;3.50;;
23159;SDS011;11748;50.844;4.396;2023-08-08T22:02:09;3.92;;;2.80;;
23159;SDS011;11748;50.844;4.396;2023-08-08T22:04:35;8.70;;;2.92;;
23159;SDS011;11748;50.844;4.396;2023-08-08T22:07:01;5.45;;;3.00;;
23159;SDS011;11748;50.844;4.396;2023-08-08T22:09:27;7.03;;;3.05;;
23159;SDS011;11748;50.844;4.396;2023-08-08T22:11:59;6.47;;;2.70;;
23159;SDS011;11748;50.844;4.396;2023-08-08T22:14:28;8.07;;;3.13;;
23159;SDS011;11748;50.844;4.396;2023-08-08T22:16:54;7.18;;;2.83;;
23159;SDS011;11748;50.844;4.396;2023-08-08T22:19:20;11.45;;;2.88;;
23159;SDS011;11748;50.844;4.396;2023-08-08T22:21:45;8.55;;;3.38;;
23159;SDS011;11748;50.844;4.396;2023-08-08T22:24:11;5.88;;;3.35;;
23159;SDS011;11748;50.844;4.396;2023-08-08T22:26:37;5.03;;;3.03;;
23159;SDS011;11748;50.844;4.396;2023-08-08T22:29:02;7.38;;;3.00;;
23159;SDS011;11748;50.844;4.396;2023-08-08T22:31:28;7.75;;;2.88;;
23159;SDS011;11748;50.844;4.396;2023-08-08T22:33:54;7.78;;;3.15;;
23159;SDS011;11748;50.844;4.396;2023-08-08T22:36:19;6.00;;;3.20;;
23159;SDS011;11748;50.844;4.396;2023-08-08T22:38:45;5.00;;;2.92;;
23159;SDS011;11748;50.844;4.396;2023-08-08T22:41:11;10.48;;;3.13;;
23159;SDS011;11748;50.844;4.396;2023-08-08T22:43:37;7.22;;;3.03;;
23159;SDS011;11748;50.844;4.396;2023-08-08T22:46:03;7.00;;;2.90;;
23159;SDS011;11748;50.844;4.396;2023-08-08T22:48:28;7.28;;;2.97;;
23159;SDS011;11748;50.844;4.396;2023-08-08T22:50:54;5.07;;;2.38;;
23159;SDS011;11748;50.844;4.396;2023-08-08T22:53:21;7.60;;;2.97;;
23159;SDS011;11748;50.844;4.396;2023-08-08T22:55:47;5.82;;;2.60;;
23159;SDS011;11748;50.844;4.396;2023-08-08T22:58:12;5.05;;;2.67;;
23159;SDS011;11748;50.844;4.396;2023-08-08T23:00:39;6.88;;;2.67;;
23159;SDS011;11748;50.844;4.396;2023-08-08T23:03:10;3.05;;;2.20;;
23159;SDS011;11748;50.844;4.396;2023-08-08T23:05:37;4.25;;;2.58;;
23159;SDS011;11748;50.844;4.396;2023-08-08T23:08:03;8.85;;;2.60;;
23159;SDS011;11748;50.844;4.396;2023-08-08T23:10:29;3.40;;;2.22;;
23159;SDS011;11748;50.844;4.396;2023-08-08T23:12:55;8.98;;;2.78;;
23159;SDS011;11748;50.844;4.396;2023-08-08T23:15:21;6.03;;;2.33;;
23159;SDS011;11748;50.844;4.396;2023-08-08T23:17:47;4.03;;;2.35;;
23159;SDS011;11748;50.844;4.396;2023-08-08T23:20:14;9.52;;;3.38;;
23159;SDS011;11748;50.844;4.396;2023-08-08T23:22:40;5.53;;;2.90;;
23159;SDS011;11748;50.844;4.396;2023-08-08T23:25:05;10.07;;;2.80;;
23159;SDS011;11748;50.844;4.396;2023-08-08T23:27:32;6.22;;;3.42;;
23159;SDS011;11748;50.844;4.396;2023-08-08T23:29:58;3.80;;;3.10;;
23159;SDS011;11748;50.844;4.396;2023-08-08T23:32:24;4.32;;;3.00;;
23159;SDS011;11748;50.844;4.396;2023-08-08T23:34:49;11.10;;;4.32;;
23159;SDS011;11748;50.844;4.396;2023-08-08T23:37:15;7.30;;;3.45;;
23159;SDS011;11748;50.844;4.396;2023-08-08T23:39:43;5.15;;;2.97;;
23159;SDS011;11748;50.844;4.396;2023-08-08T23:42:09;8.30;;;2.72;;
23159;SDS011;11748;50.844;4.396;2023-08-08T23:44:34;4.65;;;2.90;;
23159;SDS011;11748;50.844;4.396;2023-08-08T23:47:00;5.15;;;2.90;;
23159;SDS011;11748;50.844;4.396;2023-08-08T23:49:26;5.93;;;2.85;;
23159;SDS011;11748;50.844;4.396;2023-08-08T23:51:52;5.78;;;3.15;;
